sensor_id;sensor_type;location;lat;lon;timestamp;P1;durP1;ratioP1;P2;durP2;ratioP2
24259;SDS011;12384;48.112;18.418;2023-11-18T00:00:32;11.30;;;10.77;;
24259;SDS011;12384;48.112;18.418;2023-11-18T00:03:01;11.60;;;11.00;;
24259;SDS011;12384;48.112;18.418;2023-11-18T00:05:30;11.63;;;11.03;;
24259;SDS011;12384;48.112;18.418;2023-11-18T00:08:00;11.40;;;10.80;;
24259;SDS011;12384;48.112;18.418;2023-11-18T00:10:28;11.40;;;10.80;;
24259;SDS011;12384;48.112;18.418;2023-11-18T00:12:57;11.63;;;11.03;;
24259;SDS011;12384;48.112;18.418;2023-11-18T00:15:28;10.70;;;10.20;;
24259;SDS011;12384;48.112;18.418;2023-11-18T00:17:57;10.80;;;10.30;;
24259;SDS011;12384;48.112;18.418;2023-11-18T00:20:25;11.60;;;11.00;;
24259;SDS011;12384;48.112;18.418;2023-11-18T00:22:53;11.90;;;11.30;;
24259;SDS011;12384;48.112;18.418;2023-11-18T00:25:23;11.17;;;10.67;;
24259;SDS011;12384;48.112;18.418;2023-11-18T00:27:52;11.77;;;11.17;;
24259;SDS011;12384;48.112;18.418;2023-11-18T00:30:21;11.07;;;10.57;;
24259;SDS011;12384;48.112;18.418;2023-11-18T00:32:50;11.50;;;10.90;;
24259;SDS011;12384;48.112;18.418;2023-11-18T00:35:19;12.37;;;11.77;;
24259;SDS011;12384;48.112;18.418;2023-11-18T00:37:47;12.57;;;11.97;;
24259;SDS011;12384;48.112;18.418;2023-11-18T00:40:16;13.00;;;12.30;;
24259;SDS011;12384;48.112;18.418;2023-11-18T00:42:47;11.70;;;11.10;;
24259;SDS011;12384;48.112;18.418;2023-11-18T00:45:15;12.03;;;11.43;;
24259;SDS011;12384;48.112;18.418;2023-11-18T00:47:44;11.93;;;11.33;;
24259;SDS011;12384;48.112;18.418;2023-11-18T00:50:13;11.53;;;10.93;;
24259;SDS011;12384;48.112;18.418;2023-11-18T00:52:42;11.80;;;11.20;;
24259;SDS011;12384;48.112;18.418;2023-11-18T00:55:11;11.50;;;10.90;;
24259;SDS011;12384;48.112;18.418;2023-11-18T00:57:39;11.20;;;10.70;;
24259;SDS011;12384;48.112;18.418;2023-11-18T01:00:11;11.70;;;11.10;;
24259;SDS011;12384;48.112;18.418;2023-11-18T01:02:43;11.17;;;10.67;;
24259;SDS011;12384;48.112;18.418;2023-11-18T01:05:13;11.83;;;11.23;;
24259;SDS011;12384;48.112;18.418;2023-11-18T01:07:42;11.90;;;11.30;;
24259;SDS011;12384;48.112;18.418;2023-11-18T01:10:11;12.30;;;11.70;;
24259;SDS011;12384;48.112;18.418;2023-11-18T01:12:40;12.80;;;12.00;;
24259;SDS011;12384;48.112;18.418;2023-11-18T01:15:13;12.67;;;11.97;;
24259;SDS011;12384;48.112;18.418;2023-11-18T01:17:42;12.37;;;11.77;;
24259;SDS011;12384;48.112;18.418;2023-11-18T01:20:11;12.13;;;11.53;;
24259;SDS011;12384;48.112;18.418;2023-11-18T01:22:40;12.70;;;12.10;;
24259;SDS011;12384;48.112;18.418;2023-11-18T01:25:12;11.33;;;10.73;;
24259;SDS011;12384;48.112;18.418;2023-11-18T01:27:41;11.47;;;10.83;;
24259;SDS011;12384;48.112;18.418;2023-11-18T01:30:09;12.30;;;11.70;;
24259;SDS011;12384;48.112;18.418;2023-11-18T01:32:40;11.47;;;10.87;;
24259;SDS011;12384;48.112;18.418;2023-11-18T01:35:10;11.93;;;11.33;;
24259;SDS011;12384;48.112;18.418;2023-11-18T01:37:39;11.80;;;11.20;;
24259;SDS011;12384;48.112;18.418;2023-11-18T01:40:08;12.03;;;11.43;;
24259;SDS011;12384;48.112;18.418;2023-11-18T01:42:41;11.73;;;11.13;;
24259;SDS011;12384;48.112;18.418;2023-11-18T01:45:10;12.20;;;11.60;;
24259;SDS011;12384;48.112;18.418;2023-11-18T01:47:40;12.30;;;11.70;;
24259;SDS011;12384;48.112;18.418;2023-11-18T01:50:10;12.03;;;11.43;;
24259;SDS011;12384;48.112;18.418;2023-11-18T01:52:41;12.03;;;11.43;;
24259;SDS011;12384;48.112;18.418;2023-11-18T01:55:12;12.00;;;11.40;;
24259;SDS011;12384;48.112;18.418;2023-11-18T01:57:41;11.73;;;11.13;;
24259;SDS011;12384;48.112;18.418;2023-11-18T02:00:12;12.27;;;11.63;;
24259;SDS011;12384;48.112;18.418;2023-11-18T02:02:46;10.63;;;10.13;;
24259;SDS011;12384;48.112;18.418;2023-11-18T02:05:15;11.70;;;11.10;;
24259;SDS011;12384;48.112;18.418;2023-11-18T02:07:45;11.00;;;10.50;;
24259;SDS011;12384;48.112;18.418;2023-11-18T02:10:14;12.00;;;11.33;;
24259;SDS011;12384;48.112;18.418;2023-11-18T02:12:46;11.70;;;11.10;;
24259;SDS011;12384;48.112;18.418;2023-11-18T02:15:24;10.93;;;10.43;;
24259;SDS011;12384;48.112;18.418;2023-11-18T02:17:56;11.70;;;11.10;;
24259;SDS011;12384;48.112;18.418;2023-11-18T02:20:25;12.10;;;11.50;;
24259;SDS011;12384;48.112;18.418;2023-11-18T02:22:56;11.73;;;11.13;;
24259;SDS011;12384;48.112;18.418;2023-11-18T02:25:25;12.23;;;11.57;;
24259;SDS011;12384;48.112;18.418;2023-11-18T02:27:57;12.60;;;11.90;;
24259;SDS011;12384;48.112;18.418;2023-11-18T02:30:26;11.97;;;11.20;;
24259;SDS011;12384;48.112;18.418;2023-11-18T02:32:59;11.83;;;11.23;;
24259;SDS011;12384;48.112;18.418;2023-11-18T02:35:40;11.40;;;10.80;;
24259;SDS011;12384;48.112;18.418;2023-11-18T02:38:15;11.90;;;11.30;;
24259;SDS011;12384;48.112;18.418;2023-11-18T02:40:46;11.60;;;10.90;;
24259;SDS011;12384;48.112;18.418;2023-11-18T02:43:19;11.17;;;10.67;;
24259;SDS011;12384;48.112;18.418;2023-11-18T02:45:48;11.40;;;10.80;;
24259;SDS011;12384;48.112;18.418;2023-11-18T02:48:18;11.23;;;10.63;;
24259;SDS011;12384;48.112;18.418;2023-11-18T02:50:46;11.50;;;10.93;;
24259;SDS011;12384;48.112;18.418;2023-11-18T02:53:15;11.50;;;10.90;;
24259;SDS011;12384;48.112;18.418;2023-11-18T02:55:43;11.53;;;10.93;;
24259;SDS011;12384;48.112;18.418;2023-11-18T02:58:13;10.83;;;10.33;;
24259;SDS011;12384;48.112;18.418;2023-11-18T03:00:42;11.30;;;10.70;;
24259;SDS011;12384;48.112;18.418;2023-11-18T03:03:11;11.37;;;10.77;;
24259;SDS011;12384;48.112;18.418;2023-11-18T03:05:41;10.50;;;10.00;;
24259;SDS011;12384;48.112;18.418;2023-11-18T03:08:10;10.33;;;9.83;;
24259;SDS011;12384;48.112;18.418;2023-11-18T03:10:39;10.80;;;10.30;;
24259;SDS011;12384;48.112;18.418;2023-11-18T03:13:11;10.80;;;10.30;;
24259;SDS011;12384;48.112;18.418;2023-11-18T03:15:39;10.90;;;10.40;;
24259;SDS011;12384;48.112;18.418;2023-11-18T03:18:09;10.50;;;10.00;;
24259;SDS011;12384;48.112;18.418;2023-11-18T03:20:38;11.17;;;10.63;;
24259;SDS011;12384;48.112;18.418;2023-11-18T03:23:06;10.70;;;10.20;;
24259;SDS011;12384;48.112;18.418;2023-11-18T03:25:35;10.17;;;9.67;;
24259;SDS011;12384;48.112;18.418;2023-11-18T03:28:05;10.67;;;10.17;;
24259;SDS011;12384;48.112;18.418;2023-11-18T03:30:34;10.80;;;10.30;;
24259;SDS011;12384;48.112;18.418;2023-11-18T03:33:04;11.03;;;10.50;;
24259;SDS011;12384;48.112;18.418;2023-11-18T03:35:39;11.07;;;10.57;;
24259;SDS011;12384;48.112;18.418;2023-11-18T03:38:08;10.90;;;10.33;;
24259;SDS011;12384;48.112;18.418;2023-11-18T03:40:36;11.03;;;10.50;;
24259;SDS011;12384;48.112;18.418;2023-11-18T03:43:05;10.70;;;10.20;;
24259;SDS011;12384;48.112;18.418;2023-11-18T03:45:34;10.87;;;10.27;;
24259;SDS011;12384;48.112;18.418;2023-11-18T03:48:02;10.70;;;10.07;;
24259;SDS011;12384;48.112;18.418;2023-11-18T03:50:31;10.83;;;10.33;;
24259;SDS011;12384;48.112;18.418;2023-11-18T03:53:01;10.70;;;10.20;;
24259;SDS011;12384;48.112;18.418;2023-11-18T03:55:30;11.67;;;11.07;;
24259;SDS011;12384;48.112;18.418;2023-11-18T03:57:59;11.40;;;10.80;;
24259;SDS011;12384;48.112;18.418;2023-11-18T04:00:27;11.10;;;10.53;;
24259;SDS011;12384;48.112;18.418;2023-11-18T04:02:58;11.30;;;10.70;;
24259;SDS011;12384;48.112;18.418;2023-11-18T04:05:27;11.00;;;10.50;;
24259;SDS011;12384;48.112;18.418;2023-11-18T04:07:55;10.73;;;10.23;;
24259;SDS011;12384;48.112;18.418;2023-11-18T04:10:25;10.80;;;10.30;;
24259;SDS011;12384;48.112;18.418;2023-11-18T04:12:55;10.60;;;10.10;;
24259;SDS011;12384;48.112;18.418;2023-11-18T04:15:23;10.50;;;10.00;;
24259;SDS011;12384;48.112;18.418;2023-11-18T04:17:53;10.23;;;9.73;;
24259;SDS011;12384;48.112;18.418;2023-11-18T04:20:22;10.17;;;9.67;;
24259;SDS011;12384;48.112;18.418;2023-11-18T04:22:50;9.37;;;8.97;;
24259;SDS011;12384;48.112;18.418;2023-11-18T04:25:19;10.60;;;10.10;;
24259;SDS011;12384;48.112;18.418;2023-11-18T04:27:49;10.40;;;9.90;;
24259;SDS011;12384;48.112;18.418;2023-11-18T04:30:17;10.90;;;10.40;;
24259;SDS011;12384;48.112;18.418;2023-11-18T04:32:46;11.07;;;10.57;;
24259;SDS011;12384;48.112;18.418;2023-11-18T04:35:15;11.30;;;10.80;;
24259;SDS011;12384;48.112;18.418;2023-11-18T04:37:43;11.60;;;11.00;;
24259;SDS011;12384;48.112;18.418;2023-11-18T04:40:13;11.47;;;10.87;;
24259;SDS011;12384;48.112;18.418;2023-11-18T04:42:42;11.47;;;10.87;;
24259;SDS011;12384;48.112;18.418;2023-11-18T04:45:12;11.23;;;10.73;;
24259;SDS011;12384;48.112;18.418;2023-11-18T04:47:41;11.23;;;10.63;;
24259;SDS011;12384;48.112;18.418;2023-11-18T04:50:11;11.90;;;11.30;;
24259;SDS011;12384;48.112;18.418;2023-11-18T04:52:41;11.60;;;11.00;;
24259;SDS011;12384;48.112;18.418;2023-11-18T04:55:10;12.00;;;11.40;;
24259;SDS011;12384;48.112;18.418;2023-11-18T04:57:40;11.57;;;10.97;;
24259;SDS011;12384;48.112;18.418;2023-11-18T05:00:09;11.33;;;10.73;;
24259;SDS011;12384;48.112;18.418;2023-11-18T05:02:39;11.13;;;10.63;;
24259;SDS011;12384;48.112;18.418;2023-11-18T05:05:09;11.60;;;11.00;;
24259;SDS011;12384;48.112;18.418;2023-11-18T05:07:39;11.53;;;10.93;;
24259;SDS011;12384;48.112;18.418;2023-11-18T05:10:08;11.13;;;10.63;;
24259;SDS011;12384;48.112;18.418;2023-11-18T05:12:38;11.23;;;10.63;;
24259;SDS011;12384;48.112;18.418;2023-11-18T05:15:10;11.17;;;10.57;;
24259;SDS011;12384;48.112;18.418;2023-11-18T05:17:41;10.40;;;9.90;;
24259;SDS011;12384;48.112;18.418;2023-11-18T05:20:10;10.47;;;9.90;;
24259;SDS011;12384;48.112;18.418;2023-11-18T05:22:39;10.20;;;9.70;;
24259;SDS011;12384;48.112;18.418;2023-11-18T05:25:08;10.20;;;9.70;;
24259;SDS011;12384;48.112;18.418;2023-11-18T05:27:37;10.40;;;9.90;;
24259;SDS011;12384;48.112;18.418;2023-11-18T05:30:07;10.87;;;10.37;;
24259;SDS011;12384;48.112;18.418;2023-11-18T05:32:36;10.63;;;10.13;;
24259;SDS011;12384;48.112;18.418;2023-11-18T05:35:08;10.03;;;9.53;;
24259;SDS011;12384;48.112;18.418;2023-11-18T05:37:38;10.30;;;9.80;;
24259;SDS011;12384;48.112;18.418;2023-11-18T05:40:08;10.33;;;9.83;;
24259;SDS011;12384;48.112;18.418;2023-11-18T05:42:42;10.67;;;10.17;;
24259;SDS011;12384;48.112;18.418;2023-11-18T05:45:13;11.50;;;10.90;;
24259;SDS011;12384;48.112;18.418;2023-11-18T05:47:54;11.33;;;10.80;;
24259;SDS011;12384;48.112;18.418;2023-11-18T05:50:25;11.33;;;10.73;;
24259;SDS011;12384;48.112;18.418;2023-11-18T05:52:54;11.00;;;10.40;;
24259;SDS011;12384;48.112;18.418;2023-11-18T05:55:22;10.63;;;10.03;;
24259;SDS011;12384;48.112;18.418;2023-11-18T05:57:51;11.03;;;10.53;;
24259;SDS011;12384;48.112;18.418;2023-11-18T06:00:19;11.00;;;10.50;;
24259;SDS011;12384;48.112;18.418;2023-11-18T06:03:01;11.50;;;10.90;;
24259;SDS011;12384;48.112;18.418;2023-11-18T06:05:32;11.13;;;10.63;;
24259;SDS011;12384;48.112;18.418;2023-11-18T06:08:02;11.60;;;11.00;;
24259;SDS011;12384;48.112;18.418;2023-11-18T06:10:31;11.07;;;10.57;;
24259;SDS011;12384;48.112;18.418;2023-11-18T06:13:01;10.90;;;10.40;;
24259;SDS011;12384;48.112;18.418;2023-11-18T06:15:31;10.60;;;10.10;;
24259;SDS011;12384;48.112;18.418;2023-11-18T06:18:02;11.17;;;10.57;;
24259;SDS011;12384;48.112;18.418;2023-11-18T06:20:34;11.43;;;10.83;;
24259;SDS011;12384;48.112;18.418;2023-11-18T06:23:05;10.50;;;10.00;;
24259;SDS011;12384;48.112;18.418;2023-11-18T06:25:33;10.10;;;9.60;;
24259;SDS011;12384;48.112;18.418;2023-11-18T06:28:02;10.20;;;9.70;;
24259;SDS011;12384;48.112;18.418;2023-11-18T06:30:34;10.00;;;9.50;;
24259;SDS011;12384;48.112;18.418;2023-11-18T06:33:03;9.97;;;9.47;;
24259;SDS011;12384;48.112;18.418;2023-11-18T06:35:31;10.07;;;9.57;;
24259;SDS011;12384;48.112;18.418;2023-11-18T06:38:03;9.90;;;9.40;;
24259;SDS011;12384;48.112;18.418;2023-11-18T06:40:31;9.97;;;9.47;;
24259;SDS011;12384;48.112;18.418;2023-11-18T06:43:02;10.30;;;9.80;;
24259;SDS011;12384;48.112;18.418;2023-11-18T06:45:41;9.83;;;9.33;;
24259;SDS011;12384;48.112;18.418;2023-11-18T06:48:11;9.70;;;9.20;;
24259;SDS011;12384;48.112;18.418;2023-11-18T06:50:41;9.50;;;9.10;;
24259;SDS011;12384;48.112;18.418;2023-11-18T06:53:12;9.13;;;8.73;;
24259;SDS011;12384;48.112;18.418;2023-11-18T06:55:41;9.07;;;8.67;;
24259;SDS011;12384;48.112;18.418;2023-11-18T06:58:10;9.70;;;9.20;;
24259;SDS011;12384;48.112;18.418;2023-11-18T07:00:39;9.63;;;9.13;;
24259;SDS011;12384;48.112;18.418;2023-11-18T07:03:09;9.97;;;9.47;;
24259;SDS011;12384;48.112;18.418;2023-11-18T07:05:38;9.80;;;9.30;;
24259;SDS011;12384;48.112;18.418;2023-11-18T07:08:07;9.50;;;9.00;;
24259;SDS011;12384;48.112;18.418;2023-11-18T07:10:37;9.23;;;8.83;;
24259;SDS011;12384;48.112;18.418;2023-11-18T07:13:06;10.47;;;9.97;;
24259;SDS011;12384;48.112;18.418;2023-11-18T07:15:35;10.13;;;9.63;;
24259;SDS011;12384;48.112;18.418;2023-11-18T07:18:03;10.63;;;10.13;;
24259;SDS011;12384;48.112;18.418;2023-11-18T07:20:33;10.40;;;9.90;;
24259;SDS011;12384;48.112;18.418;2023-11-18T07:23:01;9.73;;;9.23;;
24259;SDS011;12384;48.112;18.418;2023-11-18T07:25:30;10.27;;;9.77;;
24259;SDS011;12384;48.112;18.418;2023-11-18T07:28:00;10.60;;;10.10;;
24259;SDS011;12384;48.112;18.418;2023-11-18T07:30:29;10.20;;;9.70;;
24259;SDS011;12384;48.112;18.418;2023-11-18T07:32:57;9.87;;;9.37;;
24259;SDS011;12384;48.112;18.418;2023-11-18T07:35:28;10.03;;;9.43;;
24259;SDS011;12384;48.112;18.418;2023-11-18T07:37:57;10.43;;;9.93;;
24259;SDS011;12384;48.112;18.418;2023-11-18T07:40:27;9.67;;;9.20;;
24259;SDS011;12384;48.112;18.418;2023-11-18T07:42:56;10.70;;;10.20;;
24259;SDS011;12384;48.112;18.418;2023-11-18T07:45:35;9.47;;;9.07;;
24259;SDS011;12384;48.112;18.418;2023-11-18T07:48:05;9.80;;;9.30;;
24259;SDS011;12384;48.112;18.418;2023-11-18T07:50:34;9.27;;;8.87;;
24259;SDS011;12384;48.112;18.418;2023-11-18T07:53:04;9.83;;;9.33;;
24259;SDS011;12384;48.112;18.418;2023-11-18T07:55:33;10.00;;;9.50;;
24259;SDS011;12384;48.112;18.418;2023-11-18T07:58:06;9.67;;;9.17;;
24259;SDS011;12384;48.112;18.418;2023-11-18T08:00:39;9.73;;;9.23;;
24259;SDS011;12384;48.112;18.418;2023-11-18T08:03:09;9.60;;;9.10;;
24259;SDS011;12384;48.112;18.418;2023-11-18T08:05:40;9.50;;;9.00;;
24259;SDS011;12384;48.112;18.418;2023-11-18T08:08:10;9.40;;;9.00;;
24259;SDS011;12384;48.112;18.418;2023-11-18T08:10:40;9.73;;;9.27;;
24259;SDS011;12384;48.112;18.418;2023-11-18T08:13:10;10.10;;;9.60;;
24259;SDS011;12384;48.112;18.418;2023-11-18T08:15:41;9.97;;;9.47;;
24259;SDS011;12384;48.112;18.418;2023-11-18T08:18:12;10.73;;;9.93;;
24259;SDS011;12384;48.112;18.418;2023-11-18T08:20:41;10.40;;;9.90;;
24259;SDS011;12384;48.112;18.418;2023-11-18T08:23:11;10.23;;;9.73;;
24259;SDS011;12384;48.112;18.418;2023-11-18T08:25:40;10.13;;;9.63;;
24259;SDS011;12384;48.112;18.418;2023-11-18T08:28:09;9.83;;;9.33;;
24259;SDS011;12384;48.112;18.418;2023-11-18T08:30:38;11.00;;;10.50;;
24259;SDS011;12384;48.112;18.418;2023-11-18T08:33:08;11.67;;;11.07;;
24259;SDS011;12384;48.112;18.418;2023-11-18T08:35:36;8.27;;;7.87;;
24259;SDS011;12384;48.112;18.418;2023-11-18T08:38:07;8.57;;;8.17;;
24259;SDS011;12384;48.112;18.418;2023-11-18T08:40:39;8.90;;;8.50;;
24259;SDS011;12384;48.112;18.418;2023-11-18T08:43:09;9.67;;;9.17;;
24259;SDS011;12384;48.112;18.418;2023-11-18T08:45:38;9.27;;;8.83;;
24259;SDS011;12384;48.112;18.418;2023-11-18T08:48:09;10.73;;;10.13;;
24259;SDS011;12384;48.112;18.418;2023-11-18T08:50:38;11.30;;;10.70;;
24259;SDS011;12384;48.112;18.418;2023-11-18T08:53:07;10.73;;;10.13;;
24259;SDS011;12384;48.112;18.418;2023-11-18T08:55:37;9.40;;;8.90;;
24259;SDS011;12384;48.112;18.418;2023-11-18T08:58:18;9.93;;;9.43;;
24259;SDS011;12384;48.112;18.418;2023-11-18T09:00:49;9.43;;;9.03;;
24259;SDS011;12384;48.112;18.418;2023-11-18T09:03:23;10.13;;;9.63;;
24259;SDS011;12384;48.112;18.418;2023-11-18T09:05:56;10.77;;;10.27;;
24259;SDS011;12384;48.112;18.418;2023-11-18T09:08:30;11.23;;;10.70;;
24259;SDS011;12384;48.112;18.418;2023-11-18T09:11:02;10.50;;;10.00;;
24259;SDS011;12384;48.112;18.418;2023-11-18T09:13:33;10.20;;;9.70;;
24259;SDS011;12384;48.112;18.418;2023-11-18T09:16:03;9.37;;;8.97;;
24259;SDS011;12384;48.112;18.418;2023-11-18T09:18:37;8.83;;;8.43;;
24259;SDS011;12384;48.112;18.418;2023-11-18T09:21:09;9.43;;;9.03;;
24259;SDS011;12384;48.112;18.418;2023-11-18T09:23:42;10.13;;;9.63;;
24259;SDS011;12384;48.112;18.418;2023-11-18T09:26:14;9.53;;;9.13;;
24259;SDS011;12384;48.112;18.418;2023-11-18T09:28:44;9.30;;;8.90;;
24259;SDS011;12384;48.112;18.418;2023-11-18T09:31:12;9.73;;;9.23;;
24259;SDS011;12384;48.112;18.418;2023-11-18T09:33:42;10.30;;;9.80;;
24259;SDS011;12384;48.112;18.418;2023-11-18T09:36:19;10.53;;;10.03;;
24259;SDS011;12384;48.112;18.418;2023-11-18T09:38:50;10.47;;;9.97;;
24259;SDS011;12384;48.112;18.418;2023-11-18T09:41:22;9.20;;;8.80;;
24259;SDS011;12384;48.112;18.418;2023-11-18T09:43:54;10.17;;;9.67;;
24259;SDS011;12384;48.112;18.418;2023-11-18T09:46:29;10.20;;;9.70;;
24259;SDS011;12384;48.112;18.418;2023-11-18T09:49:06;10.17;;;9.67;;
24259;SDS011;12384;48.112;18.418;2023-11-18T09:51:43;10.80;;;10.30;;
24259;SDS011;12384;48.112;18.418;2023-11-18T09:54:18;11.17;;;10.57;;
24259;SDS011;12384;48.112;18.418;2023-11-18T09:56:55;11.33;;;10.73;;
24259;SDS011;12384;48.112;18.418;2023-11-18T09:59:39;11.57;;;10.97;;
24259;SDS011;12384;48.112;18.418;2023-11-18T10:02:22;10.80;;;10.20;;
24259;SDS011;12384;48.112;18.418;2023-11-18T10:04:54;11.17;;;10.63;;
24259;SDS011;12384;48.112;18.418;2023-11-18T10:07:27;10.63;;;10.13;;
24259;SDS011;12384;48.112;18.418;2023-11-18T10:10:00;10.97;;;10.47;;
24259;SDS011;12384;48.112;18.418;2023-11-18T10:12:29;11.20;;;10.70;;
24259;SDS011;12384;48.112;18.418;2023-11-18T10:14:58;10.60;;;10.10;;
24259;SDS011;12384;48.112;18.418;2023-11-18T10:17:26;11.47;;;10.87;;
24259;SDS011;12384;48.112;18.418;2023-11-18T10:19:57;10.23;;;9.73;;
24259;SDS011;12384;48.112;18.418;2023-11-18T10:22:27;10.80;;;10.30;;
24259;SDS011;12384;48.112;18.418;2023-11-18T10:24:59;11.33;;;10.73;;
24259;SDS011;12384;48.112;18.418;2023-11-18T10:27:28;11.40;;;10.80;;
24259;SDS011;12384;48.112;18.418;2023-11-18T10:30:01;11.17;;;10.67;;
24259;SDS011;12384;48.112;18.418;2023-11-18T10:32:30;11.90;;;11.30;;
24259;SDS011;12384;48.112;18.418;2023-11-18T10:35:04;11.47;;;10.87;;
24259;SDS011;12384;48.112;18.418;2023-11-18T10:37:36;11.97;;;11.30;;
24259;SDS011;12384;48.112;18.418;2023-11-18T10:40:11;10.93;;;10.33;;
24259;SDS011;12384;48.112;18.418;2023-11-18T10:42:42;11.53;;;10.93;;
24259;SDS011;12384;48.112;18.418;2023-11-18T10:45:23;11.50;;;10.90;;
24259;SDS011;12384;48.112;18.418;2023-11-18T10:47:54;12.10;;;11.50;;
24259;SDS011;12384;48.112;18.418;2023-11-18T10:50:26;12.40;;;11.80;;
24259;SDS011;12384;48.112;18.418;2023-11-18T10:52:59;11.63;;;11.03;;
24259;SDS011;12384;48.112;18.418;2023-11-18T10:55:36;12.17;;;11.47;;
24259;SDS011;12384;48.112;18.418;2023-11-18T10:58:07;11.20;;;10.70;;
24259;SDS011;12384;48.112;18.418;2023-11-18T11:00:45;11.47;;;10.87;;
24259;SDS011;12384;48.112;18.418;2023-11-18T11:03:16;11.80;;;11.20;;
24259;SDS011;12384;48.112;18.418;2023-11-18T11:05:46;11.50;;;10.90;;
24259;SDS011;12384;48.112;18.418;2023-11-18T11:08:16;11.87;;;11.27;;
24259;SDS011;12384;48.112;18.418;2023-11-18T11:11:01;11.33;;;10.80;;
24259;SDS011;12384;48.112;18.418;2023-11-18T11:13:35;8.80;;;8.40;;
24259;SDS011;12384;48.112;18.418;2023-11-18T11:16:05;8.67;;;8.27;;
24259;SDS011;12384;48.112;18.418;2023-11-18T11:18:37;9.23;;;8.80;;
24259;SDS011;12384;48.112;18.418;2023-11-18T11:21:14;9.37;;;8.87;;
24259;SDS011;12384;48.112;18.418;2023-11-18T11:23:49;9.37;;;8.87;;
24259;SDS011;12384;48.112;18.418;2023-11-18T11:29:13;9.13;;;8.73;;
24259;SDS011;12384;48.112;18.418;2023-11-18T11:31:59;9.70;;;9.20;;
24259;SDS011;12384;48.112;18.418;2023-11-18T11:34:40;10.47;;;9.97;;
24259;SDS011;12384;48.112;18.418;2023-11-18T11:37:16;10.57;;;10.07;;
24259;SDS011;12384;48.112;18.418;2023-11-18T11:39:46;9.20;;;8.80;;
24259;SDS011;12384;48.112;18.418;2023-11-18T11:42:15;9.90;;;9.40;;
24259;SDS011;12384;48.112;18.418;2023-11-18T11:44:47;10.07;;;9.57;;
24259;SDS011;12384;48.112;18.418;2023-11-18T11:47:20;10.03;;;9.53;;
24259;SDS011;12384;48.112;18.418;2023-11-18T11:49:53;10.13;;;9.63;;
24259;SDS011;12384;48.112;18.418;2023-11-18T11:52:31;9.60;;;9.20;;
24259;SDS011;12384;48.112;18.418;2023-11-18T11:55:06;10.97;;;10.47;;
24259;SDS011;12384;48.112;18.418;2023-11-18T11:57:40;9.63;;;9.13;;
24259;SDS011;12384;48.112;18.418;2023-11-18T12:00:11;9.20;;;8.80;;
24259;SDS011;12384;48.112;18.418;2023-11-18T12:02:51;9.53;;;9.10;;
24259;SDS011;12384;48.112;18.418;2023-11-18T12:05:23;9.47;;;8.97;;
24259;SDS011;12384;48.112;18.418;2023-11-18T12:07:55;9.80;;;9.30;;
24259;SDS011;12384;48.112;18.418;2023-11-18T12:10:26;9.30;;;8.90;;
24259;SDS011;12384;48.112;18.418;2023-11-18T12:13:07;10.13;;;9.63;;
24259;SDS011;12384;48.112;18.418;2023-11-18T12:15:50;10.00;;;9.50;;
24259;SDS011;12384;48.112;18.418;2023-11-18T12:18:24;9.20;;;8.80;;
24259;SDS011;12384;48.112;18.418;2023-11-18T12:20:53;9.97;;;9.47;;
24259;SDS011;12384;48.112;18.418;2023-11-18T12:23:24;9.80;;;9.30;;
24259;SDS011;12384;48.112;18.418;2023-11-18T12:25:53;8.60;;;8.20;;
24259;SDS011;12384;48.112;18.418;2023-11-18T12:28:27;8.80;;;8.40;;
24259;SDS011;12384;48.112;18.418;2023-11-18T12:31:02;8.87;;;8.47;;
24259;SDS011;12384;48.112;18.418;2023-11-18T12:36:51;9.83;;;9.33;;
24259;SDS011;12384;48.112;18.418;2023-11-18T12:39:48;10.17;;;9.67;;
24259;SDS011;12384;48.112;18.418;2023-11-18T12:49:04;10.20;;;9.70;;
24259;SDS011;12384;48.112;18.418;2023-11-18T12:51:33;9.40;;;9.00;;
24259;SDS011;12384;48.112;18.418;2023-11-18T12:54:03;10.00;;;9.50;;
24259;SDS011;12384;48.112;18.418;2023-11-18T12:56:35;10.10;;;9.60;;
24259;SDS011;12384;48.112;18.418;2023-11-18T12:59:05;9.90;;;9.40;;
24259;SDS011;12384;48.112;18.418;2023-11-18T13:01:36;10.07;;;9.57;;
24259;SDS011;12384;48.112;18.418;2023-11-18T13:04:05;10.00;;;9.50;;
24259;SDS011;12384;48.112;18.418;2023-11-18T13:06:33;9.90;;;9.30;;
24259;SDS011;12384;48.112;18.418;2023-11-18T13:09:03;10.10;;;9.60;;
24259;SDS011;12384;48.112;18.418;2023-11-18T13:11:37;9.30;;;8.90;;
24259;SDS011;12384;48.112;18.418;2023-11-18T13:14:09;9.37;;;8.97;;
24259;SDS011;12384;48.112;18.418;2023-11-18T13:16:39;9.17;;;8.77;;
24259;SDS011;12384;48.112;18.418;2023-11-18T13:19:08;10.13;;;9.43;;
24259;SDS011;12384;48.112;18.418;2023-11-18T13:21:36;9.23;;;8.83;;
24259;SDS011;12384;48.112;18.418;2023-11-18T13:24:05;9.33;;;8.93;;
24259;SDS011;12384;48.112;18.418;2023-11-18T13:26:35;9.80;;;9.30;;
24259;SDS011;12384;48.112;18.418;2023-11-18T13:29:06;8.97;;;8.43;;
24259;SDS011;12384;48.112;18.418;2023-11-18T13:31:36;8.73;;;8.33;;
24259;SDS011;12384;48.112;18.418;2023-11-18T13:34:07;8.87;;;8.47;;
24259;SDS011;12384;48.112;18.418;2023-11-18T13:36:37;9.10;;;8.70;;
24259;SDS011;12384;48.112;18.418;2023-11-18T13:39:06;9.17;;;8.77;;
24259;SDS011;12384;48.112;18.418;2023-11-18T13:41:36;9.13;;;8.73;;
24259;SDS011;12384;48.112;18.418;2023-11-18T13:44:06;9.50;;;9.10;;
24259;SDS011;12384;48.112;18.418;2023-11-18T13:46:37;8.93;;;8.53;;
24259;SDS011;12384;48.112;18.418;2023-11-18T13:49:08;10.20;;;9.70;;
24259;SDS011;12384;48.112;18.418;2023-11-18T13:51:36;8.43;;;8.03;;
24259;SDS011;12384;48.112;18.418;2023-11-18T13:54:06;8.73;;;8.33;;
24259;SDS011;12384;48.112;18.418;2023-11-18T13:56:35;8.87;;;8.47;;
24259;SDS011;12384;48.112;18.418;2023-11-18T13:59:04;8.73;;;8.33;;
24259;SDS011;12384;48.112;18.418;2023-11-18T14:01:36;10.00;;;9.50;;
24259;SDS011;12384;48.112;18.418;2023-11-18T14:04:05;9.57;;;9.17;;
24259;SDS011;12384;48.112;18.418;2023-11-18T14:06:35;9.30;;;8.90;;
24259;SDS011;12384;48.112;18.418;2023-11-18T14:09:03;9.77;;;9.27;;
24259;SDS011;12384;48.112;18.418;2023-11-18T14:11:32;9.73;;;9.23;;
24259;SDS011;12384;48.112;18.418;2023-11-18T14:14:01;9.43;;;9.03;;
24259;SDS011;12384;48.112;18.418;2023-11-18T14:16:31;9.97;;;9.47;;
24259;SDS011;12384;48.112;18.418;2023-11-18T14:18:59;9.50;;;8.97;;
24259;SDS011;12384;48.112;18.418;2023-11-18T14:21:29;10.27;;;9.50;;
24259;SDS011;12384;48.112;18.418;2023-11-18T14:23:58;8.63;;;8.23;;
24259;SDS011;12384;48.112;18.418;2023-11-18T14:26:30;8.97;;;8.53;;
24259;SDS011;12384;48.112;18.418;2023-11-18T14:28:58;9.30;;;8.90;;
24259;SDS011;12384;48.112;18.418;2023-11-18T14:31:28;9.17;;;8.77;;
24259;SDS011;12384;48.112;18.418;2023-11-18T14:33:58;9.80;;;9.30;;
24259;SDS011;12384;48.112;18.418;2023-11-18T14:36:28;9.47;;;8.97;;
24259;SDS011;12384;48.112;18.418;2023-11-18T14:38:56;9.37;;;8.97;;
24259;SDS011;12384;48.112;18.418;2023-11-18T14:41:26;9.43;;;9.03;;
24259;SDS011;12384;48.112;18.418;2023-11-18T14:43:57;9.53;;;9.13;;
24259;SDS011;12384;48.112;18.418;2023-11-18T14:46:27;9.30;;;8.87;;
24259;SDS011;12384;48.112;18.418;2023-11-18T14:48:59;9.40;;;9.00;;
24259;SDS011;12384;48.112;18.418;2023-11-18T14:51:27;10.10;;;9.60;;